Time;durP1;ratioP1;P1;durP2;ratioP2;P2;SDS_P1;SDS_P2;PMS_P1;PMS_P2;Temp;Humidity;BMP_temperature;BMP_pressure;BME280_temperature;BME280_humidity;BME280_pressure;Samples;Min_cycle;Max_cycle;Signal;HPM_P1;HPM_P2
2023/04/04 00:00:44;;;;;;;2.57;1.63;;;;;;;1.79;74.06;101197.47;5035071;28;20219;-71
2023/04/04 00:03:09;;;;;;;3.00;1.50;;;;;;;1.81;73.86;101189.03;5034418;28;20807;-72
2023/04/04 00:05:34;;;;;;;2.37;1.60;;;;;;;1.72;74.19;101193.78;5031107;28;20214;-71
2023/04/04 00:08:00;;;;;;;3.13;1.50;;;;;;;1.73;74.09;101190.44;5035812;28;20210;-71
2023/04/04 00:10:26;;;;;;;2.47;1.60;;;;;;;1.68;74.27;101189.34;5032354;28;20190;-72
2023/04/04 00:12:51;;;;;;;2.60;1.50;;;;;;;1.65;75.04;101181.56;5034877;28;20210;-72
2023/04/04 00:15:17;;;;;;;2.70;1.47;;;;;;;1.67;74.57;101187.59;5031815;28;20211;-71
2023/04/04 00:17:42;;;;;;;2.00;1.40;;;;;;;1.61;74.98;101182.22;5033970;28;20199;-72
2023/04/04 00:20:08;;;;;;;2.37;1.40;;;;;;;1.63;74.43;101172.97;5032869;28;20306;-70
2023/04/04 00:22:34;;;;;;;2.57;1.60;;;;;;;1.55;75.05;101171.78;5033730;28;20212;-71
2023/04/04 00:25:00;;;;;;;1.53;1.40;;;;;;;1.52;75.35;101165.75;5041061;28;20202;-71
2023/04/04 00:27:25;;;;;;;3.30;1.57;;;;;;;1.50;75.34;101177.56;5032128;28;20207;-71
2023/04/04 00:29:51;;;;;;;3.73;1.57;;;;;;;1.44;75.65;101169.63;5030657;28;20180;-73
2023/04/04 00:32:16;;;;;;;2.70;1.70;;;;;;;1.49;75.33;101162.19;5028310;28;20182;-72
2023/04/04 00:34:42;;;;;;;2.27;1.63;;;;;;;1.45;74.90;101176.47;5033561;28;20383;-72
2023/04/04 00:37:10;;;;;;;2.73;1.63;;;;;;;1.44;75.18;101163.66;5038998;28;20251;-72
2023/04/04 00:39:36;;;;;;;1.90;1.40;;;;;;;1.43;75.30;101172.13;5034849;28;20601;-71
2023/04/04 00:42:01;;;;;;;1.70;1.57;;;;;;;1.36;75.35;101171.84;5031336;28;20191;-71
2023/04/04 00:44:27;;;;;;;4.57;1.70;;;;;;;1.39;74.82;101178.78;5029430;28;20229;-71
2023/04/04 00:46:52;;;;;;;3.27;1.63;;;;;;;1.34;75.08;101170.94;5034046;28;20298;-71
2023/04/04 00:49:17;;;;;;;1.90;1.43;;;;;;;1.31;75.22;101177.56;5027014;28;20191;-71
2023/04/04 00:51:43;;;;;;;2.93;1.67;;;;;;;1.31;75.00;101173.34;5029898;28;20187;-71
2023/04/04 00:54:09;;;;;;;2.63;1.60;;;;;;;1.25;75.41;101175.63;5029496;28;20207;-72
2023/04/04 00:56:37;;;;;;;3.57;2.03;;;;;;;1.26;75.47;101166.31;5037752;28;20660;-71
2023/04/04 00:59:03;;;;;;;2.00;1.53;;;;;;;1.20;75.93;101165.22;5031019;28;20193;-71
2023/04/04 01:01:30;;;;;;;3.57;1.43;;;;;;;1.23;75.19;101169.59;5028683;28;20227;-72
2023/04/04 01:03:56;;;;;;;4.50;1.80;;;;;;;1.18;75.89;101169.38;5034151;28;20210;-73
2023/04/04 01:06:21;;;;;;;2.40;1.50;;;;;;;1.19;75.78;101154.97;5034036;28;20260;-71
2023/04/04 01:08:47;;;;;;;2.10;1.67;;;;;;;1.16;75.77;101163.34;5040722;28;20210;-70
2023/04/04 01:11:14;;;;;;;1.87;1.60;;;;;;;1.17;75.58;101162.53;5033098;28;20752;-71
2023/04/04 01:13:39;;;;;;;1.90;1.57;;;;;;;1.17;76.22;101161.69;5039163;28;20713;-71
2023/04/04 01:16:05;;;;;;;3.10;1.50;;;;;;;1.09;76.47;101161.34;5038760;28;20196;-72
2023/04/04 01:18:33;;;;;;;2.40;1.60;;;;;;;1.07;76.58;101170.59;5036074;28;20263;-71
2023/04/04 01:21:06;;;;;;;2.07;1.80;;;;;;;1.03;76.38;101156.84;5032487;28;20183;-72
2023/04/04 01:23:42;;;;;;;3.23;1.87;;;;;;;1.00;76.61;101163.47;5032821;28;20252;-71
2023/04/04 01:26:08;;;;;;;2.33;1.53;;;;;;;0.95;77.09;101159.88;5051074;28;20191;-70
2023/04/04 01:28:33;;;;;;;1.97;1.77;;;;;;;0.94;77.25;101158.13;5041867;28;20206;-71
2023/04/04 01:31:00;;;;;;;2.70;1.67;;;;;;;0.97;76.59;101151.47;5033617;28;20280;-71
2023/04/04 01:33:36;;;;;;;3.80;1.67;;;;;;;0.97;76.75;101155.72;5035827;28;20210;-72
2023/04/04 01:36:39;;;;;;;2.00;1.30;;;;;;;0.94;76.91;101150.47;5037848;28;20178;-71
2023/04/04 01:39:13;;;;;;;2.63;1.70;;;;;;;0.89;77.40;101145.19;5035811;28;20286;-71
2023/04/04 01:41:38;;;;;;;1.67;1.30;;;;;;;0.83;77.65;101150.84;5039490;28;20186;-70
2023/04/04 01:44:04;;;;;;;2.70;1.57;;;;;;;0.81;78.12;101143.97;5042651;28;20210;-74
2023/04/04 01:46:30;;;;;;;2.50;1.47;;;;;;;0.82;77.58;101149.13;5082385;28;20205;-72
2023/04/04 01:48:55;;;;;;;2.50;1.70;;;;;;;0.79;77.57;101143.91;5043724;28;20207;-71
2023/04/04 01:51:22;;;;;;;2.73;1.50;;;;;;;0.81;77.37;101149.94;5037396;28;20191;-71
2023/04/04 01:53:47;;;;;;;3.40;1.83;;;;;;;0.77;78.29;101150.59;5032497;28;20219;-71
2023/04/04 01:56:13;;;;;;;2.20;1.60;;;;;;;0.73;78.34;101152.16;5035876;28;20191;-72
2023/04/04 01:58:38;;;;;;;3.00;1.53;;;;;;;0.72;78.68;101158.03;5034758;28;20189;-72
2023/04/04 02:01:03;;;;;;;3.67;1.47;;;;;;;0.65;79.03;101155.16;5038158;28;20209;-71
2023/04/04 02:03:29;;;;;;;3.70;1.80;;;;;;;0.65;79.27;101140.72;5037438;28;20217;-71
2023/04/04 02:05:54;;;;;;;2.17;1.60;;;;;;;0.63;79.69;101154.19;5037831;28;20185;-71
2023/04/04 02:08:20;;;;;;;2.20;1.57;;;;;;;0.57;80.00;101154.78;5032771;28;20212;-72
2023/04/04 02:10:45;;;;;;;2.97;1.40;;;;;;;0.48;80.12;101144.16;5041636;28;20215;-71
2023/04/04 02:13:11;;;;;;;3.67;1.83;;;;;;;0.50;79.83;101151.09;5036899;28;20239;-70
2023/04/04 02:15:36;;;;;;;2.10;1.63;;;;;;;0.48;79.96;101159.44;5032881;28;20194;-70
2023/04/04 02:18:02;;;;;;;1.63;1.30;;;;;;;0.48;79.96;101155.25;5035120;28;20902;-71
2023/04/04 02:20:27;;;;;;;3.63;1.63;;;;;;;0.50;80.00;101150.22;5040816;28;20221;-71
2023/04/04 02:22:54;;;;;;;2.50;1.73;;;;;;;0.51;80.15;101150.28;5035680;28;21047;-71
2023/04/04 02:25:21;;;;;;;4.13;1.83;;;;;;;0.43;81.03;101143.97;5041487;28;20210;-72
2023/04/04 02:27:46;;;;;;;4.93;1.73;;;;;;;0.38;81.28;101153.09;5032108;28;20865;-71
2023/04/04 02:30:12;;;;;;;3.33;1.90;;;;;;;0.43;81.05;101149.06;5035718;28;20221;-71
2023/04/04 02:32:38;;;;;;;2.90;1.80;;;;;;;0.41;80.97;101141.34;5036004;28;20575;-72
2023/04/04 02:35:04;;;;;;;1.83;1.53;;;;;;;0.36;80.78;101147.91;5032235;28;20194;-74
2023/04/04 02:37:29;;;;;;;3.23;1.83;;;;;;;0.36;80.98;101139.41;5032041;28;20182;-71
2023/04/04 02:39:54;;;;;;;3.00;2.03;;;;;;;0.27;81.37;101144.94;5031091;28;20191;-71
2023/04/04 02:42:20;;;;;;;2.10;1.73;;;;;;;0.26;81.49;101144.03;5042575;28;20216;-73
2023/04/04 02:44:45;;;;;;;2.73;1.50;;;;;;;0.29;81.13;101141.66;5026260;28;20543;-71
2023/04/04 02:47:11;;;;;;;1.73;1.60;;;;;;;0.26;81.43;101143.19;5035213;28;20217;-70
2023/04/04 02:49:36;;;;;;;3.77;1.67;;;;;;;0.25;80.99;101142.28;5033645;28;20187;-70
2023/04/04 02:52:01;;;;;;;3.63;1.73;;;;;;;0.26;81.17;101149.13;5033177;28;20186;-70
2023/04/04 02:54:27;;;;;;;2.37;1.80;;;;;;;0.18;81.32;101141.94;5032218;28;20219;-71
2023/04/04 02:56:52;;;;;;;1.80;1.67;;;;;;;0.19;81.50;101151.31;5026301;28;20208;-71
2023/04/04 02:59:18;;;;;;;2.27;1.60;;;;;;;0.15;81.79;101143.53;5030586;28;20186;-70
2023/04/04 03:01:43;;;;;;;3.10;2.00;;;;;;;0.14;81.54;101141.81;5032790;28;20719;-71
2023/04/04 03:04:08;;;;;;;1.60;1.50;;;;;;;0.14;81.07;101146.03;5038984;28;21371;-72
2023/04/04 03:06:34;;;;;;;2.73;1.80;;;;;;;0.11;81.20;101138.22;5031649;28;20201;-71
2023/04/04 03:08:59;;;;;;;2.47;1.80;;;;;;;0.10;81.28;101146.66;5033441;28;20206;-73
2023/04/04 03:11:25;;;;;;;3.20;1.90;;;;;;;0.06;81.57;101140.56;5032030;28;20186;-71
2023/04/04 03:13:50;;;;;;;2.63;2.03;;;;;;;0.03;82.16;101144.66;5037361;28;20259;-71
2023/04/04 03:16:18;;;;;;;2.17;1.93;;;;;;;0.01;82.47;101136.91;5035534;28;20512;-70
2023/04/04 03:18:44;;;;;;;3.33;2.00;;;;;;;-0.02;82.47;101140.19;5037268;28;20908;-71
2023/04/04 03:21:09;;;;;;;3.33;1.77;;;;;;;0.01;82.31;101146.25;5031865;28;20192;-71
2023/04/04 03:23:35;;;;;;;4.80;1.90;;;;;;;0.01;82.22;101143.69;5033638;28;20214;-70
2023/04/04 03:26:00;;;;;;;4.70;1.90;;;;;;;-0.01;82.46;101148.72;5033570;28;20193;-71
2023/04/04 03:28:26;;;;;;;3.50;1.90;;;;;;;-0.04;82.33;101144.34;5032284;28;20207;-71
2023/04/04 03:30:51;;;;;;;2.77;1.67;;;;;;;-0.08;82.90;101149.22;5034444;28;20197;-73
2023/04/04 03:33:18;;;;;;;1.93;1.63;;;;;;;-0.08;82.34;101150.09;5045702;28;20263;-71
2023/04/04 03:35:43;;;;;;;3.30;1.97;;;;;;;-0.11;82.80;101144.84;5033699;28;20191;-71
2023/04/04 03:38:09;;;;;;;3.90;1.70;;;;;;;-0.11;82.84;101149.06;5029209;28;20569;-71
2023/04/04 03:40:35;;;;;;;2.87;1.90;;;;;;;-0.16;83.03;101142.09;5034459;28;20570;-70
2023/04/04 03:43:03;;;;;;;3.70;2.00;;;;;;;-0.17;82.88;101135.25;5033160;28;20352;-71
2023/04/04 03:45:33;;;;;;;3.17;2.10;;;;;;;-0.19;83.58;101146.13;5028131;28;20187;-71
2023/04/04 03:47:58;;;;;;;3.57;2.20;;;;;;;-0.21;83.88;101147.72;5029734;28;20209;-71
2023/04/04 03:50:23;;;;;;;3.90;2.03;;;;;;;-0.25;83.77;101151.81;5038134;28;20191;-72
2023/04/04 03:52:49;;;;;;;3.57;1.70;;;;;;;-0.26;83.04;101144.97;5030688;28;20588;-71
2023/04/04 03:55:14;;;;;;;3.83;2.13;;;;;;;-0.27;83.32;101150.00;5028034;28;20274;-71
2023/04/04 03:57:40;;;;;;;3.13;2.10;;;;;;;-0.29;83.22;101160.06;5048072;28;20178;-70
2023/04/04 04:00:06;;;;;;;2.93;2.33;;;;;;;-0.32;83.87;101149.78;5035229;28;20208;-71
2023/04/04 04:02:31;;;;;;;2.97;1.97;;;;;;;-0.29;83.46;101159.22;5026861;28;20257;-69
2023/04/04 04:04:56;;;;;;;5.13;2.17;;;;;;;-0.29;83.41;101149.03;5033023;28;20195;-72
2023/04/04 04:07:21;;;;;;;2.63;1.70;;;;;;;-0.35;83.95;101159.78;5032751;28;20205;-71
2023/04/04 04:09:47;;;;;;;3.80;2.50;;;;;;;-0.36;84.00;101164.00;5023806;28;20649;-74
2023/04/04 04:12:12;;;;;;;2.10;1.77;;;;;;;-0.39;84.14;101158.78;5032863;28;20227;-72
2023/04/04 04:14:37;;;;;;;4.07;2.00;;;;;;;-0.39;84.39;101157.88;5025096;28;20723;-72
2023/04/04 04:17:03;;;;;;;3.03;1.63;;;;;;;-0.40;84.14;101154.47;5033851;28;20242;-72
2023/04/04 04:19:28;;;;;;;2.90;2.07;;;;;;;-0.45;85.14;101155.06;5036032;28;20198;-72
2023/04/04 04:21:54;;;;;;;3.67;1.90;;;;;;;-0.45;84.97;101155.06;5032249;28;20186;-72
2023/04/04 04:24:19;;;;;;;2.83;2.10;;;;;;;-0.43;84.40;101149.25;5031154;28;20205;-74
2023/04/04 04:26:45;;;;;;;4.27;2.23;;;;;;;-0.48;84.66;101158.28;5033542;28;20189;-73
2023/04/04 04:29:10;;;;;;;3.90;1.97;;;;;;;-0.51;84.99;101164.13;5031168;28;20905;-73
2023/04/04 04:31:36;;;;;;;2.40;1.90;;;;;;;-0.53;85.05;101160.63;5026496;28;20276;-73
2023/04/04 04:34:05;;;;;;;4.07;2.40;;;;;;;-0.55;84.84;101168.97;5026931;28;20212;-74
2023/04/04 04:36:30;;;;;;;5.20;2.33;;;;;;;-0.53;84.87;101160.63;5034639;28;20178;-71
2023/04/04 04:38:55;;;;;;;3.80;2.20;;;;;;;-0.58;85.38;101161.19;5030251;28;20179;-72
2023/04/04 04:41:21;;;;;;;4.70;2.10;;;;;;;-0.60;85.57;101161.09;5027245;28;20532;-72
2023/04/04 04:43:46;;;;;;;4.97;2.20;;;;;;;-0.62;85.81;101168.66;5030778;28;20209;-72
2023/04/04 04:46:12;;;;;;;2.33;2.00;;;;;;;-0.65;86.18;101171.03;5028039;28;20239;-70
2023/04/04 04:48:37;;;;;;;2.70;2.30;;;;;;;-0.64;86.03;101172.78;5027047;28;20263;-71
2023/04/04 04:51:03;;;;;;;3.83;2.30;;;;;;;-0.64;85.37;101171.91;5029486;28;20674;-72
2023/04/04 04:53:28;;;;;;;3.97;2.03;;;;;;;-0.64;85.72;101166.84;5029076;28;20214;-72
2023/04/04 04:55:53;;;;;;;2.20;2.00;;;;;;;-0.65;86.06;101168.50;5032447;28;20187;-71
2023/04/04 04:58:22;;;;;;;4.00;2.10;;;;;;;-0.64;85.88;101166.84;5031825;28;20654;-70
2023/04/04 05:00:48;;;;;;;3.73;2.20;;;;;;;-0.65;85.26;101177.78;5030965;28;20692;-71
2023/04/04 05:03:13;;;;;;;3.43;2.10;;;;;;;-0.68;85.72;101175.09;5039563;28;20717;-71
2023/04/04 05:05:39;;;;;;;2.93;2.27;;;;;;;-0.73;86.01;101172.31;5031420;28;20208;-71
2023/04/04 05:08:04;;;;;;;3.23;2.37;;;;;;;-0.69;86.46;101176.78;5027901;28;20292;-71
2023/04/04 05:10:30;;;;;;;4.27;2.23;;;;;;;-0.67;86.50;101182.78;5026003;28;20240;-71
2023/04/04 05:12:56;;;;;;;4.13;2.57;;;;;;;-0.66;86.50;101184.53;5040190;28;20251;-71
2023/04/04 05:15:24;;;;;;;5.77;2.60;;;;;;;-0.65;86.37;101178.66;5027275;28;20190;-71
2023/04/04 05:17:50;;;;;;;5.27;2.30;;;;;;;-0.65;86.23;101187.97;5032410;28;20181;-71
2023/04/04 05:20:15;;;;;;;6.07;2.60;;;;;;;-0.65;86.58;101183.75;5028835;28;20668;-72
2023/04/04 05:22:44;;;;;;;5.67;2.67;;;;;;;-0.60;86.34;101180.56;5028822;28;21073;-71
2023/04/04 05:25:12;;;;;;;3.17;2.13;;;;;;;-0.59;86.47;101183.19;5031663;28;20188;-73
2023/04/04 05:27:38;;;;;;;4.10;2.30;;;;;;;-0.55;86.76;101187.63;5026823;28;20229;-73
2023/04/04 05:30:04;;;;;;;3.30;2.20;;;;;;;-0.53;86.56;101186.03;5030944;28;21241;-72
2023/04/04 05:32:30;;;;;;;3.13;2.00;;;;;;;-0.44;85.86;101187.28;5032544;28;20212;-73
2023/04/04 05:34:55;;;;;;;4.43;2.50;;;;;;;-0.33;84.98;101191.28;5026975;28;20185;-75
2023/04/04 05:37:21;;;;;;;6.27;2.80;;;;;;;-0.27;85.01;101198.31;5021885;28;20231;-71
2023/04/04 05:39:46;;;;;;;3.33;2.37;;;;;;;-0.27;84.76;101194.09;5024077;28;20213;-73
2023/04/04 05:42:12;;;;;;;4.03;2.57;;;;;;;-0.12;84.09;101191.44;5022001;28;20229;-74
2023/04/04 05:44:37;;;;;;;3.83;2.80;;;;;;;0.11;83.28;101192.56;5023179;28;20202;-73
2023/04/04 05:47:03;;;;;;;3.63;2.37;;;;;;;0.51;82.25;101195.25;5028353;28;20196;-75
2023/04/04 05:49:28;;;;;;;3.47;2.40;;;;;;;0.83;80.37;101189.09;5024098;28;20209;-73
2023/04/04 05:51:56;;;;;;;3.30;2.40;;;;;;;1.16;79.41;101188.00;5022250;28;20198;-73
2023/04/04 05:54:22;;;;;;;3.37;2.63;;;;;;;1.47;78.20;101191.88;5029088;28;20214;-71
2023/04/04 05:56:47;;;;;;;3.17;2.30;;;;;;;1.84;76.95;101188.28;5026828;28;20244;-71
2023/04/04 05:59:13;;;;;;;2.80;2.40;;;;;;;2.13;75.37;101186.03;5028642;28;20200;-71
2023/04/04 06:01:39;;;;;;;3.33;2.20;;;;;;;2.20;74.76;101190.59;5034170;28;20665;-72
2023/04/04 06:04:05;;;;;;;5.30;2.50;;;;;;;2.14;74.28;101192.91;5035380;28;21110;-71
2023/04/04 06:06:30;;;;;;;3.47;2.23;;;;;;;2.16;73.81;101186.19;5038506;28;20195;-72
2023/04/04 06:08:56;;;;;;;4.97;2.43;;;;;;;2.35;74.02;101194.56;5032510;28;20214;-71
2023/04/04 06:11:21;;;;;;;2.90;2.33;;;;;;;2.35;74.17;101197.97;5038862;28;20747;-72
2023/04/04 06:13:47;;;;;;;3.80;2.23;;;;;;;2.39;73.61;101188.78;5040493;28;20209;-71
2023/04/04 06:16:12;;;;;;;5.13;2.53;;;;;;;2.16;73.49;101186.19;5035220;28;20217;-71
2023/04/04 06:18:37;;;;;;;2.83;2.17;;;;;;;2.06;74.48;101186.63;5032220;28;21071;-71
2023/04/04 06:21:03;;;;;;;3.33;2.27;;;;;;;2.06;73.76;101184.94;5041848;28;20645;-71
2023/04/04 06:23:28;;;;;;;3.60;2.27;;;;;;;2.01;73.82;101188.13;5043634;28;20297;-72
2023/04/04 06:25:53;;;;;;;4.07;2.77;;;;;;;1.87;74.43;101197.78;5052606;28;20211;-71
2023/04/04 06:28:19;;;;;;;3.07;2.03;;;;;;;1.89;75.11;101188.50;5042090;28;20218;-72
2023/04/04 06:30:44;;;;;;;3.33;2.20;;;;;;;1.80;75.60;101189.00;5040092;28;20191;-71
2023/04/04 06:33:09;;;;;;;4.43;2.23;;;;;;;2.08;74.05;101193.53;5043812;28;20612;-72
2023/04/04 06:35:35;;;;;;;2.77;2.40;;;;;;;2.38;72.87;101192.16;5038042;28;20574;-73
2023/04/04 06:38:03;;;;;;;3.47;2.33;;;;;;;2.68;72.24;101194.13;5040596;28;20568;-73
2023/04/04 06:40:28;;;;;;;2.93;2.43;;;;;;;3.30;71.08;101184.47;5039079;28;20672;-71
2023/04/04 06:43:00;;;;;;;2.70;2.33;;;;;;;4.02;69.24;101186.84;5035408;28;20269;-73
2023/04/04 06:45:26;;;;;;;3.13;2.33;;;;;;;4.21;66.67;101191.72;5030677;28;20214;-71
2023/04/04 06:47:53;;;;;;;3.17;2.67;;;;;;;4.41;66.53;101199.19;5033416;28;20302;-72
2023/04/04 06:50:19;;;;;;;3.53;2.13;;;;;;;4.37;65.85;101192.22;5031240;28;21187;-71
2023/04/04 06:52:45;;;;;;;3.57;2.30;;;;;;;4.51;65.77;101190.94;5046602;28;20213;-72
2023/04/04 06:55:12;;;;;;;4.43;2.33;;;;;;;4.63;64.89;101189.56;5037428;28;20606;-71
2023/04/04 06:57:38;;;;;;;2.57;2.37;;;;;;;5.05;64.84;101189.09;5033949;28;20244;-71
2023/04/04 07:00:04;;;;;;;3.33;2.53;;;;;;;5.27;64.07;101187.13;5029257;28;20202;-71
2023/04/04 07:02:30;;;;;;;4.13;2.50;;;;;;;5.31;63.35;101184.66;5029579;28;20780;-72
2023/04/04 07:04:55;;;;;;;3.83;2.37;;;;;;;5.37;63.20;101173.69;5033889;28;20196;-71
2023/04/04 07:07:20;;;;;;;4.67;2.20;;;;;;;5.36;63.33;101171.09;5040229;28;20212;-71
2023/04/04 07:09:46;;;;;;;2.50;2.13;;;;;;;5.43;63.25;101170.44;5045836;28;20202;-73
2023/04/04 07:12:11;;;;;;;3.67;2.40;;;;;;;5.39;63.41;101174.59;5038892;28;20695;-71
2023/04/04 07:14:37;;;;;;;3.90;2.80;;;;;;;5.18;63.29;101178.34;5029629;28;20182;-71
2023/04/04 07:17:02;;;;;;;3.00;2.37;;;;;;;5.11;63.11;101165.31;5032959;28;20188;-72
2023/04/04 07:19:28;;;;;;;3.60;2.63;;;;;;;4.94;63.06;101186.22;5037398;28;20213;-71
2023/04/04 07:21:54;;;;;;;2.83;2.03;;;;;;;4.87;63.53;101177.47;5029940;28;20220;-71
2023/04/04 07:24:19;;;;;;;4.03;2.57;;;;;;;4.70;64.13;101174.41;5048438;28;20241;-72
2023/04/04 07:26:45;;;;;;;3.33;2.50;;;;;;;4.58;64.53;101181.75;5034156;28;20199;-72
2023/04/04 07:29:10;;;;;;;3.50;2.70;;;;;;;4.26;64.46;101185.06;5058824;28;20215;-73
2023/04/04 07:31:36;;;;;;;3.37;2.57;;;;;;;4.30;64.86;101182.63;5063371;28;20542;-70
2023/04/04 07:34:02;;;;;;;3.80;2.70;;;;;;;3.93;65.25;101183.16;5057053;28;20231;-71
2023/04/04 07:36:28;;;;;;;3.63;2.67;;;;;;;3.94;65.67;101178.91;5042734;28;20614;-71
2023/04/04 07:38:53;;;;;;;4.20;3.07;;;;;;;3.99;65.33;101184.19;5041631;28;20187;-72
2023/04/04 07:41:20;;;;;;;4.90;2.63;;;;;;;3.80;64.74;101181.88;5042390;28;20193;-73
2023/04/04 07:43:45;;;;;;;4.33;3.00;;;;;;;3.72;65.04;101167.97;5044453;28;20680;-73
2023/04/04 07:46:10;;;;;;;5.07;2.90;;;;;;;3.77;65.70;101176.69;5034965;28;20205;-72
2023/04/04 07:48:36;;;;;;;3.30;2.40;;;;;;;3.79;65.44;101174.16;5032137;28;20677;-72
2023/04/04 07:51:03;;;;;;;4.30;2.60;;;;;;;3.68;65.01;101166.13;5031591;28;20542;-73
2023/04/04 07:53:28;;;;;;;4.10;2.30;;;;;;;3.73;64.93;101174.84;5036016;28;20239;-72
2023/04/04 07:55:54;;;;;;;2.97;2.30;;;;;;;3.75;64.85;101172.31;5041525;28;20225;-72
2023/04/04 07:58:20;;;;;;;5.03;2.57;;;;;;;3.80;64.75;101171.63;5039934;28;20211;-73
2023/04/04 08:00:46;;;;;;;3.67;2.63;;;;;;;3.72;64.03;101162.84;5034314;28;20560;-73
2023/04/04 08:03:12;;;;;;;6.30;2.93;;;;;;;3.66;64.54;101178.00;5033355;28;20210;-74
2023/04/04 08:05:37;;;;;;;5.47;2.93;;;;;;;3.59;64.84;101159.00;5031744;28;20182;-73
2023/04/04 08:08:02;;;;;;;7.13;2.33;;;;;;;3.69;65.19;101172.97;5031259;28;20375;-72
2023/04/04 08:10:29;;;;;;;4.77;2.37;;;;;;;3.60;64.30;101160.75;5037874;28;20322;-71
2023/04/04 08:12:54;;;;;;;5.83;2.93;;;;;;;3.57;64.00;101173.44;5034625;28;20293;-73
2023/04/04 08:15:20;;;;;;;4.20;2.60;;;;;;;3.66;64.47;101180.56;5029222;28;20201;-71
2023/04/04 08:17:45;;;;;;;4.40;2.40;;;;;;;3.66;64.42;101168.63;5040444;28;20191;-74
2023/04/04 08:20:11;;;;;;;5.87;2.50;;;;;;;3.74;63.90;101168.00;5037570;28;20197;-72
2023/04/04 08:22:37;;;;;;;3.83;2.20;;;;;;;3.78;64.15;101165.59;5035638;28;20237;-74
2023/04/04 08:25:03;;;;;;;3.70;2.40;;;;;;;3.74;63.39;101171.44;5041659;28;20191;-71
2023/04/04 08:27:28;;;;;;;3.97;2.87;;;;;;;3.76;63.32;101171.50;5045471;28;20226;-72
2023/04/04 08:29:54;;;;;;;4.07;2.53;;;;;;;3.74;63.56;101170.56;5036556;28;20554;-72
2023/04/04 08:32:19;;;;;;;3.10;2.47;;;;;;;3.74;62.99;101171.44;5032446;28;20196;-71
2023/04/04 08:34:45;;;;;;;4.03;2.60;;;;;;;3.72;62.78;101170.53;5026843;28;20202;-71
2023/04/04 08:37:10;;;;;;;4.47;2.77;;;;;;;3.87;64.11;101165.03;5028920;28;20231;-73
2023/04/04 08:39:36;;;;;;;3.10;2.23;;;;;;;3.93;63.20;101179.75;5037734;28;20217;-73
2023/04/04 08:42:04;;;;;;;5.23;2.90;;;;;;;3.91;63.13;101172.00;5031803;28;20194;-72
2023/04/04 08:44:31;;;;;;;3.93;2.90;;;;;;;4.00;63.23;101170.56;5031671;28;20183;-72
2023/04/04 08:47:02;;;;;;;3.27;2.40;;;;;;;4.19;64.04;101170.31;5033180;28;20573;-71
2023/04/04 08:49:30;;;;;;;5.00;2.97;;;;;;;4.19;62.55;101180.56;5031995;28;20184;-71
2023/04/04 08:51:58;;;;;;;2.43;2.03;;;;;;;4.23;62.39;101166.19;5027451;28;20192;-72
2023/04/04 08:54:25;;;;;;;4.60;2.27;;;;;;;4.17;61.89;101171.94;5035076;28;20212;-73
2023/04/04 08:56:51;;;;;;;5.83;2.80;;;;;;;4.26;62.49;101164.56;5027796;28;20201;-72
2023/04/04 08:59:17;;;;;;;2.90;2.60;;;;;;;4.38;62.08;101169.22;5030512;28;20206;-72
2023/04/04 09:01:43;;;;;;;2.57;2.10;;;;;;;4.37;62.02;101166.59;5034574;28;20203;-73
2023/04/04 09:04:09;;;;;;;4.27;2.30;;;;;;;4.44;61.76;101165.97;5029634;28;20215;-72
2023/04/04 09:06:36;;;;;;;3.50;2.50;;;;;;;4.49;62.03;101169.50;5032301;28;20201;-73
2023/04/04 09:09:02;;;;;;;4.33;2.60;;;;;;;4.55;62.84;101172.28;5034711;28;20237;-73
2023/04/04 09:11:32;;;;;;;5.40;3.30;;;;;;;4.66;62.27;101169.16;5035627;28;20195;-72
2023/04/04 09:14:01;;;;;;;4.07;3.20;;;;;;;4.73;60.89;101169.38;5037894;28;20944;-71
2023/04/04 09:16:27;;;;;;;3.67;2.83;;;;;;;4.73;61.49;101161.69;5038850;28;20266;-72
2023/04/04 09:18:52;;;;;;;3.50;2.20;;;;;;;4.82;62.19;101167.91;5028408;28;20270;-71
2023/04/04 09:21:18;;;;;;;5.83;3.20;;;;;;;4.83;62.10;101157.69;5035639;28;20492;-73
2023/04/04 09:23:43;;;;;;;9.20;3.10;;;;;;;4.85;61.65;101162.84;5039298;28;20230;-73
2023/04/04 09:26:10;;;;;;;3.97;2.17;;;;;;;4.93;60.34;101155.38;5036013;28;20256;-73
2023/04/04 09:28:35;;;;;;;3.03;2.50;;;;;;;5.04;61.40;101159.13;5036420;28;20203;-71
2023/04/04 09:31:03;;;;;;;3.17;2.37;;;;;;;5.19;61.88;101163.81;5035079;28;20191;-71
2023/04/04 09:33:30;;;;;;;4.53;3.27;;;;;;;5.39;62.45;101169.47;5031237;28;20242;-72
2023/04/04 09:36:05;;;;;;;3.23;2.63;;;;;;;5.45;60.76;101155.91;5029121;28;20726;-73
2023/04/04 09:38:31;;;;;;;3.60;2.80;;;;;;;5.50;60.18;101159.50;5030436;28;20206;-70
2023/04/04 09:40:56;;;;;;;4.67;3.10;;;;;;;5.46;59.74;101152.53;5029709;28;20254;-72
2023/04/04 09:43:23;;;;;;;3.13;2.67;;;;;;;5.51;58.74;101160.38;5036728;28;20307;-71
2023/04/04 09:45:49;;;;;;;3.30;2.97;;;;;;;5.54;59.01;101152.72;5031851;28;20260;-72
2023/04/04 09:48:34;;;;;;;3.67;2.50;;;;;;;5.59;59.20;101149.47;5025626;28;20216;-70
2023/04/04 09:51:02;;;;;;;5.77;4.47;;;;;;;5.70;59.88;101156.56;5031850;28;20210;-70
2023/04/04 09:53:27;;;;;;;5.47;3.70;;;;;;;5.77;59.21;101168.72;5036899;28;20214;-70
2023/04/04 09:55:55;;;;;;;3.17;2.70;;;;;;;5.60;57.72;101160.59;5032618;28;20788;-71
2023/04/04 09:58:25;;;;;;;4.40;3.13;;;;;;;5.48;58.11;101158.56;5033596;28;20637;-70
2023/04/04 10:00:55;;;;;;;3.03;2.40;;;;;;;5.53;59.57;101148.41;5031136;28;20188;-70
2023/04/04 10:03:23;;;;;;;4.20;2.90;;;;;;;5.69;59.37;101147.97;5030043;28;20747;-70
2023/04/04 10:06:01;;;;;;;3.00;2.70;;;;;;;5.90;60.36;101145.06;5033561;28;20327;-70
2023/04/04 10:08:28;;;;;;;3.37;2.50;;;;;;;5.88;58.65;101156.16;5028937;28;20205;-69
2023/04/04 10:10:57;;;;;;;4.37;2.63;;;;;;;5.81;57.55;101162.84;5032668;28;20708;-71
2023/04/04 10:13:24;;;;;;;3.17;2.60;;;;;;;5.85;58.24;101153.50;5031940;28;20601;-70
2023/04/04 10:15:51;;;;;;;6.03;2.77;;;;;;;5.80;57.34;101153.38;5034984;28;20187;-69
2023/04/04 10:18:18;;;;;;;4.00;2.50;;;;;;;5.94;58.33;101153.75;5028983;28;20654;-70
2023/04/04 10:20:45;;;;;;;3.10;2.57;;;;;;;6.08;59.19;101170.38;5037164;28;20247;-72
2023/04/04 10:23:12;;;;;;;2.67;2.47;;;;;;;5.91;56.83;101164.78;5029186;28;20212;-70
2023/04/04 10:25:37;;;;;;;9.17;3.13;;;;;;;5.84;57.78;101155.22;5030272;28;20460;-70
2023/04/04 10:28:03;;;;;;;3.80;2.80;;;;;;;5.80;57.80;101161.09;5027181;28;20734;-70
2023/04/04 10:30:30;;;;;;;3.07;2.53;;;;;;;5.83;58.18;101153.47;5031900;28;20194;-70
2023/04/04 10:32:59;;;;;;;2.77;2.57;;;;;;;5.87;57.53;101151.84;5032531;28;20264;-70
2023/04/04 10:35:25;;;;;;;3.13;2.70;;;;;;;5.94;57.68;101169.16;5035772;28;20204;-71
2023/04/04 10:37:58;;;;;;;3.70;2.70;;;;;;;6.09;58.09;101150.69;5029562;28;20187;-70
2023/04/04 10:40:27;;;;;;;3.03;2.33;;;;;;;6.22;57.97;101151.84;5032282;28;20687;-70
2023/04/04 10:42:54;;;;;;;3.93;2.60;;;;;;;6.29;56.96;101151.13;5032170;28;20221;-70
2023/04/04 10:45:20;;;;;;;4.30;2.73;;;;;;;6.44;56.61;101131.72;5034168;28;20224;-69
2023/04/04 10:47:45;;;;;;;3.53;2.77;;;;;;;6.61;57.19;101126.97;5033475;28;20219;-70
2023/04/04 10:50:11;;;;;;;4.03;2.40;;;;;;;6.76;58.06;101131.53;5032686;28;20192;-70
2023/04/04 10:52:39;;;;;;;4.07;2.93;;;;;;;6.75;56.79;101140.97;5033746;28;20207;-70
2023/04/04 10:55:07;;;;;;;7.40;3.17;;;;;;;6.72;55.71;101133.19;5028745;28;20198;-71
2023/04/04 10:57:36;;;;;;;5.40;3.17;;;;;;;6.70;57.17;101135.75;5031244;28;20182;-69
2023/04/04 11:00:08;;;;;;;3.13;2.50;;;;;;;6.62;55.93;101127.00;5030461;28;20240;-68
2023/04/04 11:02:58;;;;;;;6.50;2.90;;;;;;;6.67;56.54;101127.97;5026152;28;20216;-71
2023/04/04 11:05:33;;;;;;;6.23;2.43;;;;;;;6.71;57.39;101129.78;5029788;28;20724;-71
2023/04/04 11:08:01;;;;;;;4.47;2.47;;;;;;;6.72;55.67;101130.63;5026995;28;20215;-71
2023/04/04 11:10:29;;;;;;;3.07;2.20;;;;;;;6.81;55.81;101117.09;5027788;28;20631;-70
2023/04/04 11:12:57;;;;;;;3.37;2.70;;;;;;;6.91;55.77;101120.72;5028744;28;20215;-70
2023/04/04 11:15:24;;;;;;;2.67;2.27;;;;;;;6.89;55.45;101125.81;5027121;28;20277;-71
2023/04/04 11:17:56;;;;;;;4.67;2.80;;;;;;;6.88;55.88;101107.78;5032522;28;20188;-69
2023/04/04 11:20:27;;;;;;;2.83;2.40;;;;;;;6.84;55.48;101107.72;5029752;28;20214;-70
2023/04/04 11:23:15;;;;;;;2.67;2.27;;;;;;;6.89;56.19;101104.38;5034288;28;20561;-70
2023/04/04 11:25:48;;;;;;;3.60;2.47;;;;;;;6.93;56.40;101109.59;5032952;28;20348;-69
2023/04/04 11:28:32;;;;;;;2.90;2.40;;;;;;;7.00;55.36;101114.03;5030191;28;20259;-70